Hisle, Kentucky
Current Conditions -  °F | °C
As of 9:35 PM on Thursday 20 Nov 2014 (Local Time) from KI39 Reporting Station
Clear Clear  
Wind Chill: 20°   Ceiling: Unl
Heat Index: 27°   Visibility: 10mi
Dew Point: 18°   Wind: 6mph
Humidity: 69%   Direction: 290°WNW
Pressure: 30.24"   Gusts: NA
Location:  37.4446°N, 84.0227°W
Report Text: KI39 210235Z AUTO 29005KT 10SM CLR M03/M08 A3024 RMK AO2
Loading
Personal Weather Stations






























Interactive Weather Map New forecast layout! Learn more

10-Day Weather Forecast

Advertisements
Track Severe Weather on mobile